Gainesville Regional Airport Gainesville US
ICAO: KGNV
IATA: GNV
Category: Medium
Scheduled Services: Yes

Elevation: 152 ft
TransAlt. 18000 ft.

Airport Communications:
JACKSONVILLE APP/DEP:118.175
ATIS:127.15
CTAF:119.55
GND:121.7
RDO:122.1
RDO:122.2
TWR:119.55
UNICOM:122.95

KGNV Zoom In..

Runways:

(A) RW 07 length 4158 ft width 100 ft
---- / hdg 65

(B) RW 11 length 7504 ft width 150 ft
---- / hdg 106

(C) RW 25 length 4158 ft width 100 ft
---- / hdg 245

(D) RW 29 length 7504 ft width 150 ft
ILS 111.30 / hdg 286

Location; KGNV
Day. 24 / Time. 12.53 Zulu
* Altimeter: 30.13
* Temperature: 26° c. 78.8°f.
* Wind from: 190° Speed 03 kn.
Dewpoint: 21° c.
Visibility: 10 Statute Miles.
Clouds: Clear (automated report).

KGNV 241253Z 19003KT 10SM CLR 26/21 A3013 RMK AO2 SLP201 T02560211


Wind From 190°
Speed 03 kn.

 
 
jpsmedia.com for Web Design SOUNDCLOUD worldairports.se 2018   terms of use